createdAt,value
2023-03-06T00:00:47.433Z,92923.16
2023-03-06T00:03:15.499Z,92918.94
2023-03-06T00:05:43.651Z,92924.34
2023-03-06T00:08:12.139Z,92923.13
2023-03-06T00:10:40.779Z,92920.13
2023-03-06T00:13:12.436Z,92924.84
2023-03-06T00:15:41.160Z,92931.50
2023-03-06T00:18:09.431Z,92916.16
2023-03-06T00:20:39.926Z,92931.94
2023-03-06T00:23:08.941Z,92935.16
2023-03-06T00:25:38.906Z,92930.50
2023-03-06T00:28:06.960Z,92936.53
2023-03-06T00:30:35.331Z,92926.84
2023-03-06T00:33:03.251Z,92932.16
2023-03-06T00:35:31.593Z,92924.66
2023-03-06T00:38:00.002Z,92921.41
2023-03-06T00:40:27.858Z,92922.63
2023-03-06T00:42:55.813Z,92921.63
2023-03-06T00:45:23.759Z,92915.00
2023-03-06T00:47:51.792Z,92917.16
2023-03-06T00:50:19.613Z,92915.56
2023-03-06T00:52:47.747Z,92899.69
2023-03-06T00:55:15.683Z,92919.25
2023-03-06T00:57:43.696Z,92914.41
2023-03-06T01:00:14.503Z,92901.28
2023-03-06T01:02:42.614Z,92907.31
2023-03-06T01:05:13.196Z,92904.28
2023-03-06T01:07:41.488Z,92902.88
2023-03-06T01:10:10.466Z,92903.88
2023-03-06T01:12:38.349Z,92904.50
2023-03-06T01:15:06.946Z,92900.88
2023-03-06T01:17:35.889Z,92897.66
2023-03-06T01:20:07.041Z,92909.16
2023-03-06T01:22:34.924Z,92906.91
2023-03-06T01:25:03.119Z,92910.34
2023-03-06T01:27:31.077Z,92913.38
2023-03-06T01:29:59.068Z,92902.50
2023-03-06T01:32:26.898Z,92911.34
2023-03-06T01:34:54.871Z,92917.03
2023-03-06T01:37:22.731Z,92916.63
2023-03-06T01:39:51.094Z,92913.19
2023-03-06T01:42:19.125Z,92911.59
2023-03-06T01:45:25.795Z,92910.19
2023-03-06T01:47:53.636Z,92903.53
2023-03-06T01:50:21.659Z,92903.94
2023-03-06T01:52:53.966Z,92905.53
2023-03-06T01:55:28.120Z,92904.94
2023-03-06T01:58:00.896Z,92911.59
2023-03-06T02:00:30.000Z,92906.53
2023-03-06T02:02:57.756Z,92911.38
2023-03-06T02:05:25.589Z,92901.88
2023-03-06T02:07:54.629Z,92909.56
2023-03-06T02:10:22.900Z,92906.94
2023-03-06T02:12:53.490Z,92915.19
2023-03-06T02:15:24.148Z,92902.44
2023-03-06T02:17:53.080Z,92920.41
2023-03-06T02:20:44.264Z,92916.00
2023-03-06T02:23:29.688Z,92922.66
2023-03-06T02:26:00.701Z,92917.00
2023-03-06T02:28:28.961Z,92919.25
2023-03-06T02:30:57.439Z,92912.78
2023-03-06T02:33:28.849Z,92921.84
2023-03-06T02:36:03.424Z,92923.88
2023-03-06T02:38:40.932Z,92924.06
2023-03-06T02:41:09.592Z,92931.50
2023-03-06T02:43:40.198Z,92927.09
2023-03-06T02:46:08.556Z,92928.94
2023-03-06T02:48:36.606Z,92924.25
2023-03-06T02:51:04.601Z,92925.03
2023-03-06T02:53:33.385Z,92936.16
2023-03-06T02:57:27.677Z,92936.09
2023-03-06T02:59:57.267Z,92936.09
2023-03-06T03:02:25.841Z,92936.88
2023-03-06T03:04:53.894Z,92949.50
2023-03-06T03:07:21.981Z,92939.78
2023-03-06T03:09:50.401Z,92940.06
2023-03-06T03:12:18.422Z,92937.44
2023-03-06T03:14:46.466Z,92934.03
2023-03-06T03:17:15.198Z,92938.44
2023-03-06T03:19:43.133Z,92945.28
2023-03-06T03:22:11.026Z,92939.28
2023-03-06T03:24:40.253Z,92930.03
2023-03-06T03:27:10.559Z,92930.25
2023-03-06T03:29:38.661Z,92936.22
2023-03-06T03:32:07.280Z,92931.00
2023-03-06T03:34:35.738Z,92928.66
2023-03-06T03:37:03.822Z,92940.91
2023-03-06T03:39:31.984Z,92947.94
2023-03-06T03:41:59.992Z,92946.81
2023-03-06T03:44:28.795Z,92946.53
2023-03-06T03:46:57.304Z,92951.59
2023-03-06T03:49:25.982Z,92950.06
2023-03-06T03:51:54.445Z,92947.75
2023-03-06T03:54:23.865Z,92943.94
2023-03-06T03:56:53.854Z,92942.72
2023-03-06T03:59:28.475Z,92951.44
2023-03-06T04:02:15.604Z,92954.28
2023-03-06T04:04:51.875Z,92950.84
2023-03-06T04:07:20.440Z,92953.09
2023-03-06T04:09:49.360Z,92944.16
2023-03-06T04:12:19.233Z,92947.63
2023-03-06T04:14:48.201Z,92946.03
2023-03-06T04:17:16.550Z,92952.41
2023-03-06T04:19:45.272Z,92951.19
2023-03-06T04:22:13.434Z,92950.44
2023-03-06T04:24:41.847Z,92955.25
2023-03-06T04:27:12.308Z,92962.28
2023-03-06T04:29:40.729Z,92959.41
2023-03-06T04:32:09.590Z,92961.94
2023-03-06T04:34:38.510Z,92964.84
2023-03-06T04:37:12.022Z,92970.81
2023-03-06T04:39:40.143Z,92964.69
2023-03-06T04:42:08.112Z,92960.25
2023-03-06T04:44:36.168Z,92970.28
2023-03-06T04:47:04.350Z,92968.06
2023-03-06T04:49:32.584Z,92968.75
2023-03-06T04:52:00.422Z,92971.03
2023-03-06T04:54:28.275Z,92968.63
2023-03-06T04:56:56.425Z,92981.53
2023-03-06T04:59:24.356Z,92970.97
2023-03-06T05:01:52.523Z,92976.44
2023-03-06T05:04:20.450Z,92976.91
2023-03-06T05:06:49.781Z,92990.41
2023-03-06T05:09:17.834Z,92991.25
2023-03-06T05:11:45.777Z,92986.34
2023-03-06T05:14:13.815Z,92987.75
2023-03-06T05:16:41.724Z,92972.22
2023-03-06T05:19:09.713Z,92988.84
2023-03-06T05:21:37.634Z,92976.44
2023-03-06T05:24:05.912Z,92990.59
2023-03-06T05:26:35.057Z,92998.38
2023-03-06T05:29:03.324Z,92991.59
2023-03-06T05:31:31.540Z,93000.47
2023-03-06T05:33:59.612Z,93002.25
2023-03-06T05:36:27.938Z,92990.25
2023-03-06T05:38:56.225Z,92989.94
2023-03-06T05:41:24.238Z,92993.63
2023-03-06T05:43:53.530Z,92996.09
2023-03-06T05:46:21.309Z,93002.25
2023-03-06T05:48:49.242Z,92991.09
2023-03-06T05:51:17.230Z,92985.97
2023-03-06T05:53:45.095Z,92996.13
2023-03-06T05:56:13.576Z,92990.56
2023-03-06T05:58:41.778Z,92997.44
2023-03-06T06:01:12.665Z,92992.19
2023-03-06T06:03:40.943Z,92991.22
2023-03-06T06:06:10.776Z,92993.72
2023-03-06T06:08:39.207Z,92997.66
2023-03-06T06:11:09.988Z,92992.84
2023-03-06T06:13:39.144Z,92993.78
2023-03-06T06:16:12.939Z,93005.44
2023-03-06T06:18:41.512Z,92991.19
2023-03-06T06:21:11.643Z,92997.31
2023-03-06T06:23:39.589Z,93004.97
2023-03-06T06:26:08.912Z,92999.91
2023-03-06T06:28:36.764Z,93005.72
2023-03-06T06:31:13.367Z,93008.28
2023-03-06T06:33:42.438Z,93000.50
2023-03-06T06:36:19.827Z,92996.09
2023-03-06T06:38:48.811Z,93003.06
2023-03-06T06:44:11.550Z,92998.16
2023-03-06T06:47:20.735Z,92991.19
2023-03-06T06:49:27.721Z,92994.66
2023-03-06T06:51:55.717Z,93003.91
2023-03-06T06:54:24.050Z,93010.00
2023-03-06T06:56:52.040Z,93001.19
2023-03-06T06:59:20.435Z,92993.22
2023-03-06T07:01:48.527Z,92984.41
2023-03-06T07:04:18.307Z,93014.06
2023-03-06T07:06:46.764Z,93006.78
2023-03-06T07:09:14.760Z,92990.25
2023-03-06T07:11:42.719Z,92993.34
2023-03-06T07:14:10.748Z,92999.09
2023-03-06T07:16:39.024Z,92987.00
2023-03-06T07:19:07.896Z,92991.78
2023-03-06T07:21:35.804Z,92988.75
2023-03-06T07:24:04.917Z,92986.56
2023-03-06T07:26:34.741Z,92992.13
2023-03-06T07:29:03.989Z,92988.88
2023-03-06T07:31:32.629Z,92966.91
2023-03-06T07:34:02.528Z,92965.94
2023-03-06T07:36:33.699Z,92959.59
2023-03-06T07:39:01.965Z,92952.50
2023-03-06T07:41:29.902Z,92915.53
2023-03-06T07:43:57.985Z,92940.63
2023-03-06T07:46:26.010Z,92944.25
2023-03-06T07:48:54.248Z,92950.56
2023-03-06T07:51:23.254Z,92952.34
2023-03-06T07:53:51.339Z,92945.00
2023-03-06T07:56:19.420Z,92949.81
2023-03-06T07:58:48.308Z,92944.63
2023-03-06T08:01:20.191Z,92948.72
2023-03-06T08:03:52.763Z,92955.69
2023-03-06T08:06:22.134Z,92950.56
2023-03-06T08:08:51.833Z,92953.13
2023-03-06T08:11:22.621Z,92949.13
2023-03-06T08:13:53.020Z,92959.09
2023-03-06T08:16:22.466Z,92951.97
2023-03-06T08:18:51.664Z,92947.28
2023-03-06T08:21:22.542Z,92953.38
2023-03-06T08:23:51.430Z,92959.38
2023-03-06T08:26:24.214Z,92953.53
2023-03-06T08:28:54.121Z,92947.53
2023-03-06T08:31:27.973Z,92948.97
2023-03-06T08:33:57.734Z,92944.31
2023-03-06T08:36:25.921Z,92948.13
2023-03-06T08:38:54.883Z,92942.94
2023-03-06T08:41:23.002Z,92947.50
2023-03-06T08:43:51.512Z,92946.84
2023-03-06T08:46:22.217Z,92937.56
2023-03-06T08:48:50.097Z,92931.47
2023-03-06T08:51:19.750Z,92946.41
2023-03-06T08:53:48.260Z,92944.78
2023-03-06T08:56:23.309Z,92943.59
2023-03-06T08:58:52.669Z,92933.50
2023-03-06T09:01:29.587Z,92945.00
2023-03-06T09:04:07.717Z,92944.72
2023-03-06T09:06:39.245Z,92947.69
2023-03-06T09:09:07.884Z,92940.00
2023-03-06T09:11:36.590Z,92941.28
2023-03-06T09:14:05.744Z,92936.22
2023-03-06T09:16:33.945Z,92939.81
2023-03-06T09:19:02.077Z,92940.09
2023-03-06T09:21:30.062Z,92941.19
2023-03-06T09:23:59.367Z,92945.31
2023-03-06T09:26:39.744Z,92955.91
2023-03-06T09:29:16.569Z,92938.78
2023-03-06T09:31:45.529Z,92939.81
2023-03-06T09:34:13.851Z,92957.47
2023-03-06T09:36:55.518Z,92944.41
2023-03-06T09:39:26.631Z,92959.38
2023-03-06T09:41:57.496Z,92946.38
2023-03-06T09:44:31.570Z,92948.44
2023-03-06T09:47:36.548Z,92951.72
2023-03-06T09:50:32.774Z,92943.22
2023-03-06T09:53:28.987Z,92956.09
2023-03-06T09:56:24.806Z,92934.81
2023-03-06T09:58:59.699Z,92929.75
2023-03-06T10:01:35.217Z,92925.22
2023-03-06T10:04:16.358Z,92928.88
2023-03-06T10:06:50.532Z,92922.72
2023-03-06T10:09:43.535Z,92927.97
2023-03-06T10:12:28.811Z,92915.25
2023-03-06T10:15:02.093Z,92925.88
2023-03-06T10:17:36.028Z,92926.44
2023-03-06T10:20:16.446Z,92923.47
2023-03-06T10:23:22.309Z,92942.88
2023-03-06T10:26:20.227Z,92939.81
2023-03-06T10:29:06.601Z,92928.59
2023-03-06T10:31:35.208Z,92921.88
2023-03-06T10:34:23.068Z,92930.22
2023-03-06T10:36:51.836Z,92929.84
2023-03-06T10:39:22.693Z,92921.41
2023-03-06T10:41:50.644Z,92934.47
2023-03-06T10:44:20.652Z,92942.69
2023-03-06T10:46:51.886Z,92936.03
2023-03-06T10:49:33.485Z,92921.41
2023-03-06T10:52:03.198Z,92922.22
2023-03-06T10:54:40.157Z,92914.31
2023-03-06T10:57:31.287Z,92928.22
2023-03-06T11:00:08.531Z,92913.19
2023-03-06T11:02:41.286Z,92911.31
2023-03-06T11:05:20.665Z,92902.44
2023-03-06T11:08:00.140Z,92912.38
2023-03-06T11:10:30.035Z,92902.97
2023-03-06T11:13:03.135Z,92908.03
2023-03-06T11:15:32.329Z,92898.22
2023-03-06T11:18:01.546Z,92904.41
2023-03-06T11:20:48.658Z,92903.53
2023-03-06T11:23:45.955Z,92889.38
2023-03-06T11:26:16.736Z,92884.38
2023-03-06T11:28:57.840Z,92879.38
2023-03-06T11:31:35.949Z,92886.34
2023-03-06T11:34:14.398Z,92877.22
2023-03-06T11:37:06.603Z,92889.66
2023-03-06T11:39:45.170Z,92887.56
2023-03-06T11:42:18.843Z,92887.09
2023-03-06T11:45:17.611Z,92873.88
2023-03-06T11:47:59.351Z,92873.53
2023-03-06T11:50:39.762Z,92867.75
2023-03-06T11:53:11.936Z,92858.59
2023-03-06T11:56:03.717Z,92846.06
2023-03-06T11:58:56.736Z,92844.78
2023-03-06T12:01:36.473Z,92840.16
2023-03-06T12:04:17.957Z,92845.31
2023-03-06T12:07:06.613Z,92838.16
2023-03-06T12:10:02.768Z,92831.41
2023-03-06T12:13:08.329Z,92833.06
2023-03-06T12:15:36.273Z,92829.53
2023-03-06T12:18:34.159Z,92823.63
2023-03-06T12:21:12.968Z,92820.06
2023-03-06T12:23:56.624Z,92819.38
2023-03-06T12:27:02.372Z,92815.34
2023-03-06T12:29:41.739Z,92821.72
2023-03-06T12:32:32.631Z,92827.78
2023-03-06T12:35:35.549Z,92817.53
2023-03-06T12:38:31.273Z,92827.19
2023-03-06T12:41:35.715Z,92820.22
2023-03-06T12:44:22.248Z,92816.91
2023-03-06T12:46:58.071Z,92809.47
2023-03-06T12:49:33.300Z,92814.78
2023-03-06T12:52:02.659Z,92814.25
2023-03-06T12:54:34.018Z,92808.59
2023-03-06T12:57:03.009Z,92802.75
2023-03-06T12:59:44.765Z,92795.81
2023-03-06T13:02:39.920Z,92800.00
2023-03-06T13:05:31.762Z,92792.25
2023-03-06T13:08:48.784Z,92793.66
2023-03-06T13:11:38.056Z,92784.69
2023-03-06T13:14:25.665Z,92778.22
2023-03-06T13:16:54.471Z,92792.53
2023-03-06T13:19:25.559Z,92775.66
2023-03-06T13:21:56.643Z,92782.53
2023-03-06T13:24:34.868Z,92785.63
2023-03-06T13:27:06.317Z,92792.56
2023-03-06T13:29:37.196Z,92789.63
2023-03-06T13:32:13.948Z,92778.34
2023-03-06T13:34:48.753Z,92785.91
2023-03-06T13:37:25.318Z,92798.03
2023-03-06T13:39:57.017Z,92789.09
2023-03-06T13:42:47.946Z,92789.91
2023-03-06T13:45:38.883Z,92781.22
2023-03-06T13:48:30.264Z,92793.78
2023-03-06T13:50:56.624Z,92789.94
2023-03-06T13:53:53.194Z,92797.94
2023-03-06T13:56:21.190Z,92791.81
2023-03-06T13:59:04.320Z,92788.94
2023-03-06T14:02:00.621Z,92783.16
2023-03-06T14:04:54.978Z,92788.53
2023-03-06T14:07:29.162Z,92782.00
2023-03-06T14:10:24.911Z,92779.91
2023-03-06T14:13:15.229Z,92779.91
2023-03-06T14:15:47.738Z,92772.03
2023-03-06T14:18:29.964Z,92775.22
2023-03-06T14:21:03.802Z,92779.94
2023-03-06T14:23:42.581Z,92776.47
2023-03-06T14:26:23.593Z,92791.75
2023-03-06T14:28:59.453Z,92796.50
2023-03-06T14:31:37.799Z,92792.47
2023-03-06T14:34:08.935Z,92799.25
2023-03-06T14:36:43.755Z,92789.44
2023-03-06T14:39:33.566Z,92798.03
2023-03-06T14:42:16.541Z,92794.69
2023-03-06T14:44:46.277Z,92789.84
2023-03-06T14:47:27.653Z,92792.31
2023-03-06T14:50:21.907Z,92794.53
2023-03-06T14:52:52.695Z,92790.44
2023-03-06T14:55:24.015Z,92789.66
2023-03-06T14:58:02.750Z,92790.88
2023-03-06T15:00:36.765Z,92788.69
2023-03-06T15:03:28.467Z,92789.25
2023-03-06T15:05:57.449Z,92790.97
2023-03-06T15:08:31.807Z,92799.34
2023-03-06T15:11:03.952Z,92798.75
2023-03-06T15:13:34.356Z,92790.94
2023-03-06T15:16:04.738Z,92784.44
2023-03-06T15:18:35.628Z,92792.97
2023-03-06T15:21:11.393Z,92786.31
2023-03-06T15:23:44.667Z,92794.31
2023-03-06T15:26:37.182Z,92793.28
2023-03-06T15:29:11.203Z,92798.69
2023-03-06T15:31:42.666Z,92800.28
2023-03-06T15:34:11.026Z,92790.44
2023-03-06T15:36:40.372Z,92796.59
2023-03-06T15:39:27.755Z,92797.19
2023-03-06T15:42:01.169Z,92806.81
2023-03-06T15:44:33.111Z,92809.19
2023-03-06T15:47:09.448Z,92806.34
2023-03-06T15:49:40.526Z,92807.94
2023-03-06T15:52:09.450Z,92803.41
2023-03-06T15:54:37.942Z,92804.47
2023-03-06T15:57:14.508Z,92799.47
2023-03-06T15:59:45.292Z,92810.13
2023-03-06T16:02:20.157Z,92803.78
2023-03-06T16:04:49.559Z,92806.47
2023-03-06T16:07:18.824Z,92805.38
2023-03-06T16:09:47.817Z,92813.16
2023-03-06T16:12:17.838Z,92808.38
2023-03-06T16:14:50.202Z,92806.78
2023-03-06T16:17:18.767Z,92798.28
2023-03-06T16:19:47.907Z,92796.66
2023-03-06T16:22:16.026Z,92808.09
2023-03-06T16:24:44.027Z,92799.81
2023-03-06T16:27:19.562Z,92796.63
2023-03-06T16:29:48.229Z,92811.00
2023-03-06T16:32:16.984Z,92813.66
2023-03-06T16:34:48.010Z,92826.94
2023-03-06T16:37:16.832Z,92827.97
2023-03-06T16:39:45.308Z,92824.72
2023-03-06T16:42:13.675Z,92823.41
2023-03-06T16:44:42.073Z,92817.28
2023-03-06T16:47:13.202Z,92818.81
2023-03-06T16:49:41.712Z,92821.13
2023-03-06T16:52:11.684Z,92830.91
2023-03-06T16:54:40.166Z,92835.97
2023-03-06T16:57:10.484Z,92827.88
2023-03-06T16:59:38.847Z,92817.31
2023-03-06T17:02:07.441Z,92831.97
2023-03-06T17:04:35.584Z,92827.31
2023-03-06T17:07:04.031Z,92809.13
2023-03-06T17:09:32.691Z,92829.13
2023-03-06T17:12:01.642Z,92753.28
2023-03-06T17:14:30.338Z,92831.47
2023-03-06T17:16:59.146Z,92832.56
2023-03-06T17:19:27.632Z,92841.22
2023-03-06T17:21:56.106Z,92829.44
2023-03-06T17:24:24.771Z,92839.28
2023-03-06T17:26:53.266Z,92819.34
2023-03-06T17:29:23.064Z,92837.69
2023-03-06T17:31:51.682Z,92838.13
2023-03-06T17:34:20.174Z,92837.41
2023-03-06T17:36:48.265Z,92817.69
2023-03-06T17:39:16.743Z,92837.19
2023-03-06T17:41:46.456Z,92832.25
2023-03-06T17:44:20.150Z,92828.06
2023-03-06T17:46:50.304Z,92827.59
2023-03-06T17:49:21.933Z,92835.22
2023-03-06T17:51:50.424Z,92830.59
2023-03-06T17:54:19.248Z,92823.16
2023-03-06T17:56:47.705Z,92824.22
2023-03-06T17:59:16.575Z,92835.13
2023-03-06T18:01:45.423Z,92826.63
2023-03-06T18:04:13.611Z,92829.25
2023-03-06T18:06:42.911Z,92828.16
2023-03-06T18:09:11.304Z,92826.59
2023-03-06T18:11:39.703Z,92831.38
2023-03-06T18:14:08.060Z,92829.31
2023-03-06T18:16:36.879Z,92825.31
2023-03-06T18:19:05.322Z,92826.72
2023-03-06T18:21:33.813Z,92825.56
2023-03-06T18:24:02.198Z,92826.66
2023-03-06T18:26:30.902Z,92830.59
2023-03-06T18:29:04.094Z,92828.13
2023-03-06T18:31:35.403Z,92836.69
2023-03-06T18:34:10.192Z,92830.66
2023-03-06T18:36:39.995Z,92839.56
2023-03-06T18:39:11.716Z,92836.91
2023-03-06T18:41:40.707Z,92845.25
2023-03-06T18:44:09.441Z,92841.31
2023-03-06T18:46:38.649Z,92843.19
2023-03-06T18:49:07.650Z,92844.56
2023-03-06T18:51:36.333Z,92843.13
2023-03-06T18:54:06.200Z,92839.91
2023-03-06T18:56:35.269Z,92849.78
2023-03-06T18:59:05.775Z,92835.50
2023-03-06T19:01:35.334Z,92847.38
2023-03-06T19:04:05.156Z,92838.97
2023-03-06T19:06:34.038Z,92853.59
2023-03-06T19:09:02.630Z,92849.72
2023-03-06T19:11:32.562Z,92852.81
2023-03-06T19:14:01.180Z,92847.00
2023-03-06T19:16:31.558Z,92855.75
2023-03-06T19:19:00.172Z,92859.25
2023-03-06T19:21:29.207Z,92851.94
2023-03-06T19:23:57.850Z,92862.72
2023-03-06T19:26:28.333Z,92858.72
2023-03-06T19:28:56.916Z,92838.00
2023-03-06T19:31:27.744Z,92854.22
2023-03-06T19:33:57.407Z,92860.41
2023-03-06T19:36:33.614Z,92852.78
2023-03-06T19:39:06.638Z,92856.25
2023-03-06T19:41:35.666Z,92846.34
2023-03-06T19:44:06.210Z,92849.16
2023-03-06T19:46:36.546Z,92854.47
2023-03-06T19:49:11.985Z,92842.13
2023-03-06T19:51:40.548Z,92843.88
2023-03-06T19:54:12.075Z,92841.94
2023-03-06T19:56:41.186Z,92852.63
2023-03-06T19:59:09.523Z,92839.13
2023-03-06T20:01:39.150Z,92859.06
2023-03-06T20:04:08.175Z,92843.88
2023-03-06T20:06:39.609Z,92838.84
2023-03-06T20:09:09.846Z,92846.91
2023-03-06T20:11:38.828Z,92839.63
2023-03-06T20:14:09.247Z,92831.72
2023-03-06T20:16:38.432Z,92841.91
2023-03-06T20:19:08.995Z,92850.25
2023-03-06T20:21:38.573Z,92836.69
2023-03-06T20:24:08.919Z,92843.47
2023-03-06T20:26:38.942Z,92840.16
2023-03-06T20:29:07.887Z,92842.63
2023-03-06T20:31:36.653Z,92846.03
2023-03-06T20:34:05.450Z,92849.94
2023-03-06T20:36:40.709Z,92838.69
2023-03-06T20:39:09.752Z,92843.50
2023-03-06T20:41:38.131Z,92845.13
2023-03-06T20:44:08.244Z,92839.09
2023-03-06T20:46:36.989Z,92838.91
2023-03-06T20:49:05.385Z,92849.09
2023-03-06T20:51:39.012Z,92844.34
2023-03-06T20:54:10.789Z,92840.44
2023-03-06T20:56:41.464Z,92845.94
2023-03-06T20:59:12.299Z,92836.31
2023-03-06T21:01:43.193Z,92845.09
2023-03-06T21:04:16.366Z,92831.75
2023-03-06T21:06:47.261Z,92836.75
2023-03-06T21:09:17.119Z,92831.53
2023-03-06T21:11:46.569Z,92844.13
2023-03-06T21:14:18.660Z,92847.81
2023-03-06T21:16:46.764Z,92838.25
2023-03-06T21:19:14.986Z,92839.06
2023-03-06T21:21:42.868Z,92832.00
2023-03-06T21:24:11.117Z,92829.69
2023-03-06T21:26:39.330Z,92831.84
2023-03-06T21:29:07.506Z,92832.72
2023-03-06T21:31:36.754Z,92832.09
2023-03-06T21:34:05.631Z,92825.44
2023-03-06T21:36:33.886Z,92824.38
2023-03-06T21:39:02.700Z,92800.81
2023-03-06T21:41:32.395Z,92821.00
2023-03-06T21:44:03.659Z,92820.47
2023-03-06T21:46:32.752Z,92814.69
2023-03-06T21:49:04.749Z,92808.75
2023-03-06T21:51:33.661Z,92803.31
2023-03-06T21:54:02.498Z,92799.59
2023-03-06T21:56:31.176Z,92793.13
2023-03-06T21:58:59.511Z,92800.97
2023-03-06T22:01:29.466Z,92794.72
2023-03-06T22:03:58.918Z,92785.81
2023-03-06T22:06:28.686Z,92796.72
2023-03-06T22:08:58.612Z,92789.38
2023-03-06T22:11:29.985Z,92776.78
2023-03-06T22:13:58.377Z,92771.44
2023-03-06T22:16:26.642Z,92781.56
2023-03-06T22:18:54.760Z,92769.31
2023-03-06T22:21:23.703Z,92771.16
2023-03-06T22:23:54.123Z,92785.59
2023-03-06T22:26:22.390Z,92778.78
2023-03-06T22:28:50.565Z,92769.94
2023-03-06T22:31:24.563Z,92778.03
2023-03-06T22:33:54.372Z,92777.25
2023-03-06T22:36:23.618Z,92772.41
2023-03-06T22:38:56.136Z,92783.28
2023-03-06T22:41:26.966Z,92773.66
2023-03-06T22:43:59.893Z,92785.91
2023-03-06T22:46:28.988Z,92779.91
2023-03-06T22:48:58.296Z,92787.28
2023-03-06T22:51:27.205Z,92785.66
2023-03-06T22:53:55.706Z,92792.16
2023-03-06T22:56:24.428Z,92785.19
2023-03-06T22:58:52.419Z,92781.13
2023-03-06T23:01:49.561Z,92788.94
2023-03-06T23:04:17.609Z,92775.06
2023-03-06T23:06:47.223Z,92785.41
2023-03-06T23:09:21.649Z,92789.59
2023-03-06T23:16:33.610Z,92798.94
2023-03-06T23:19:19.982Z,92777.69
2023-03-06T23:22:08.988Z,92798.38
2023-03-06T23:24:55.212Z,92791.78
2023-03-06T23:27:23.103Z,92786.81
2023-03-06T23:29:51.188Z,92772.78
2023-03-06T23:32:19.269Z,92777.56
2023-03-06T23:34:50.015Z,92783.16
2023-03-06T23:37:17.975Z,92780.19
2023-03-06T23:39:47.125Z,92782.16
2023-03-06T23:42:15.088Z,92784.03
2023-03-06T23:44:43.112Z,92793.28
2023-03-06T23:47:11.136Z,92795.69
2023-03-06T23:49:40.205Z,92794.66
2023-03-06T23:52:08.514Z,92800.03
2023-03-06T23:54:36.440Z,92807.72
2023-03-06T23:57:04.397Z,92799.94
2023-03-06T23:59:32.421Z,92806.50
